createdAt,value
2019-03-09T00:01:10.935Z,75.10
2019-03-09T00:03:39.488Z,75.80
2019-03-09T00:06:08.133Z,75.90
2019-03-09T00:08:36.783Z,76.30
2019-03-09T00:11:05.360Z,76.70
2019-03-09T00:13:34.033Z,76.90
2019-03-09T00:16:02.994Z,76.70
2019-03-09T00:18:31.539Z,76.60
2019-03-09T00:21:00.116Z,76.90
2019-03-09T00:23:30.712Z,77.00
2019-03-09T00:26:06.844Z,77.70
2019-03-09T00:28:53.280Z,78.20
2019-03-09T00:31:25.377Z,78.20
2019-03-09T00:33:53.693Z,78.40
2019-03-09T00:36:22.266Z,79.00
2019-03-09T00:38:50.818Z,79.00
2019-03-09T00:41:19.404Z,79.30
2019-03-09T00:43:47.952Z,79.20
2019-03-09T00:46:16.662Z,79.20
2019-03-09T00:48:45.208Z,79.10
2019-03-09T00:51:13.780Z,79.40
2019-03-09T00:53:42.336Z,79.60
2019-03-09T00:56:11.212Z,79.60
2019-03-09T00:58:39.761Z,79.70
2019-03-09T01:01:08.336Z,79.90
2019-03-09T01:03:36.883Z,79.60
2019-03-09T01:06:05.520Z,80.10
2019-03-09T01:08:34.073Z,80.20
2019-03-09T01:11:02.648Z,79.70
2019-03-09T01:13:31.200Z,79.70
2019-03-09T01:15:59.752Z,79.80
2019-03-09T01:18:28.373Z,80.20
2019-03-09T01:20:56.914Z,80.30
2019-03-09T01:23:25.484Z,80.50
2019-03-09T01:25:54.044Z,80.40
2019-03-09T01:28:22.643Z,80.30
2019-03-09T01:30:51.264Z,80.30
2019-03-09T01:33:20.232Z,80.20
2019-03-09T01:35:48.845Z,80.20
2019-03-09T01:38:17.415Z,81.70
2019-03-09T01:40:46.163Z,81.80
2019-03-09T01:43:14.840Z,81.70
2019-03-09T01:45:43.410Z,81.50
2019-03-09T01:48:11.968Z,81.80
2019-03-09T01:50:40.519Z,81.90
2019-03-09T01:53:09.198Z,82.60
2019-03-09T01:55:37.984Z,82.00
2019-03-09T01:58:06.564Z,82.50
2019-03-09T02:00:35.119Z,82.90
2019-03-09T02:03:03.782Z,82.60
2019-03-09T02:05:32.405Z,83.30
2019-03-09T02:08:01.065Z,83.60
2019-03-09T02:10:30.212Z,84.00
2019-03-09T02:12:58.840Z,84.00
2019-03-09T02:15:27.719Z,83.70
2019-03-09T02:17:56.306Z,83.50
2019-03-09T02:20:24.860Z,83.80
2019-03-09T02:22:53.440Z,84.00
2019-03-09T02:25:21.993Z,84.60
2019-03-09T02:27:50.560Z,84.90
2019-03-09T02:30:19.758Z,85.70
2019-03-09T02:32:48.328Z,86.40
2019-03-09T02:35:17.820Z,87.00
2019-03-09T02:37:46.562Z,87.10
2019-03-09T02:40:28.653Z,87.50
2019-03-09T02:42:57.233Z,87.80
2019-03-09T02:45:27.890Z,87.80
2019-03-09T02:47:56.479Z,87.80
2019-03-09T02:50:25.027Z,88.10
2019-03-09T02:52:53.600Z,87.50
2019-03-09T02:55:22.176Z,87.70
2019-03-09T02:57:50.744Z,87.10
2019-03-09T03:00:20.347Z,87.00
2019-03-09T03:02:50.614Z,86.50
2019-03-09T03:05:19.185Z,86.20
2019-03-09T03:07:47.753Z,86.30
2019-03-09T03:10:16.542Z,86.10
2019-03-09T03:12:45.133Z,84.90
2019-03-09T03:15:16.772Z,84.90
2019-03-09T03:17:45.693Z,84.50
2019-03-09T03:20:14.256Z,84.70
2019-03-09T03:22:43.149Z,84.80
2019-03-09T03:25:11.768Z,83.50
2019-03-09T03:27:40.324Z,83.90
2019-03-09T03:30:08.973Z,84.60
2019-03-09T03:32:37.853Z,81.80
2019-03-09T03:35:08.373Z,82.80
2019-03-09T03:37:36.914Z,83.20
2019-03-09T03:40:12.433Z,82.10
2019-03-09T03:42:41.159Z,81.80
2019-03-09T03:45:11.665Z,81.90
2019-03-09T03:47:40.253Z,81.70
2019-03-09T03:50:09.598Z,80.90
2019-03-09T03:52:38.139Z,80.80
2019-03-09T03:55:09.158Z,81.30
2019-03-09T03:57:37.790Z,81.30
2019-03-09T04:00:15.388Z,81.00
2019-03-09T04:02:44.084Z,81.40
2019-03-09T04:05:12.803Z,80.80
2019-03-09T04:07:41.595Z,80.20
2019-03-09T04:10:12.799Z,80.10
2019-03-09T04:12:42.699Z,79.70
2019-03-09T04:15:12.278Z,80.10
2019-03-09T04:17:40.828Z,79.50
2019-03-09T04:20:11.562Z,79.60
2019-03-09T04:22:40.094Z,80.00
2019-03-09T04:25:09.528Z,80.10
2019-03-09T04:27:38.149Z,79.90
2019-03-09T04:30:09.630Z,79.70
2019-03-09T04:32:38.198Z,79.60
2019-03-09T04:35:07.721Z,79.20
2019-03-09T04:37:36.251Z,79.40
2019-03-09T04:40:09.637Z,79.40
2019-03-09T04:42:38.224Z,80.00
2019-03-09T04:45:11.455Z,79.80
2019-03-09T04:47:40.012Z,79.80
2019-03-09T04:50:13.588Z,78.60
2019-03-09T04:52:42.152Z,77.40
2019-03-09T04:55:11.064Z,77.00
2019-03-09T04:57:39.625Z,76.10
2019-03-09T05:00:13.672Z,76.20
2019-03-09T05:02:42.212Z,75.90
2019-03-09T05:05:11.735Z,75.60
2019-03-09T05:07:43.456Z,75.40
2019-03-09T05:10:15.178Z,75.90
2019-03-09T05:12:45.942Z,75.90
2019-03-09T05:15:14.880Z,76.40
2019-03-09T05:17:43.439Z,76.80
2019-03-09T05:20:12.008Z,77.00
2019-03-09T05:22:40.565Z,77.10
2019-03-09T05:25:09.207Z,78.80
2019-03-09T05:27:37.760Z,80.50
2019-03-09T05:30:18.112Z,80.60
2019-03-09T05:32:46.669Z,80.60
2019-03-09T05:35:15.248Z,81.30
2019-03-09T05:37:43.800Z,81.60
2019-03-09T05:40:12.448Z,82.00
2019-03-09T05:42:41.010Z,82.00
2019-03-09T05:45:09.725Z,82.20
2019-03-09T05:47:38.278Z,82.60
2019-03-09T05:50:08.000Z,82.60
2019-03-09T05:52:36.544Z,84.10
2019-03-09T05:55:08.209Z,84.60
2019-03-09T05:57:37.233Z,84.80
2019-03-09T06:00:08.833Z,85.90
2019-03-09T06:02:38.368Z,87.10
2019-03-09T06:05:27.928Z,87.50
2019-03-09T06:07:57.033Z,90.10
2019-03-09T06:10:26.128Z,91.30
2019-03-09T06:12:55.330Z,92.10
2019-03-09T06:15:24.887Z,92.70
2019-03-09T06:17:53.440Z,92.60
2019-03-09T06:20:22.364Z,93.00
2019-03-09T06:22:50.996Z,93.50
2019-03-09T06:25:19.652Z,93.90
2019-03-09T06:27:48.200Z,93.70
2019-03-09T06:30:16.916Z,93.80
2019-03-09T06:33:04.852Z,94.20
2019-03-09T06:35:33.446Z,94.00
2019-03-09T06:38:17.083Z,94.10
2019-03-09T06:40:45.647Z,94.00
2019-03-09T06:43:14.510Z,94.20
2019-03-09T06:45:43.087Z,94.20
2019-03-09T06:48:11.637Z,94.10
2019-03-09T06:50:40.209Z,94.10
2019-03-09T06:53:08.761Z,94.10
2019-03-09T06:55:37.432Z,94.10
2019-03-09T06:58:06.008Z,94.20
2019-03-09T07:00:36.807Z,94.40
2019-03-09T07:03:06.118Z,94.30
2019-03-09T07:05:35.226Z,94.30
2019-03-09T07:08:04.528Z,94.30
2019-03-09T07:10:33.570Z,94.40
2019-03-09T07:13:02.129Z,94.00
2019-03-09T07:15:36.005Z,94.00
2019-03-09T07:18:07.667Z,94.00
2019-03-09T07:20:36.296Z,94.20
2019-03-09T07:23:05.021Z,94.40
2019-03-09T07:25:33.682Z,94.60
2019-03-09T07:28:10.882Z,94.60
2019-03-09T07:30:39.749Z,94.60
2019-03-09T07:33:08.313Z,94.70
2019-03-09T07:35:36.936Z,94.40
2019-03-09T07:38:05.855Z,94.80
2019-03-09T07:40:34.480Z,94.60
2019-03-09T07:43:04.308Z,94.60
2019-03-09T07:45:32.976Z,95.00
2019-03-09T07:48:01.624Z,94.90
2019-03-09T07:50:30.191Z,94.60
2019-03-09T07:52:58.799Z,94.20
2019-03-09T07:55:27.327Z,93.90
2019-03-09T07:58:00.448Z,93.70
2019-03-09T08:00:29.068Z,93.40
2019-03-09T08:02:57.721Z,92.80
2019-03-09T08:05:26.453Z,92.80
2019-03-09T08:07:55.028Z,91.60
2019-03-09T08:10:26.004Z,91.20
2019-03-09T08:12:54.657Z,90.90
2019-03-09T08:15:23.357Z,90.40
2019-03-09T08:17:52.068Z,88.40
2019-03-09T08:20:22.655Z,86.40
2019-03-09T08:22:51.375Z,86.00
2019-03-09T08:25:24.749Z,85.90
2019-03-09T08:27:53.320Z,84.20
2019-03-09T08:30:26.676Z,83.40
2019-03-09T08:32:55.717Z,77.80
2019-03-09T08:35:24.278Z,72.50
2019-03-09T08:37:53.050Z,65.30
2019-03-09T08:40:22.357Z,59.80
2019-03-09T08:42:50.984Z,56.30
2019-03-09T08:45:20.864Z,56.40
2019-03-09T08:47:52.414Z,57.40
2019-03-09T08:50:24.165Z,58.40
2019-03-09T08:52:52.822Z,59.30
2019-03-09T08:55:21.400Z,58.70
2019-03-09T08:57:49.995Z,59.40
2019-03-09T09:00:27.035Z,59.30
2019-03-09T09:02:55.620Z,56.40
2019-03-09T09:05:24.244Z,57.90
2019-03-09T09:07:52.827Z,58.30
2019-03-09T09:10:21.420Z,58.30
2019-03-09T09:12:50.101Z,59.00
2019-03-09T09:15:19.204Z,60.50
2019-03-09T09:17:47.789Z,64.40
2019-03-09T09:20:22.252Z,66.40
2019-03-09T09:22:51.256Z,68.40
2019-03-09T09:25:20.258Z,72.40
2019-03-09T09:27:48.804Z,73.90
2019-03-09T09:30:28.416Z,75.70
2019-03-09T09:32:57.023Z,78.10
2019-03-09T09:35:25.743Z,80.10
2019-03-09T09:37:54.459Z,83.40
2019-03-09T09:40:27.610Z,81.80
2019-03-09T09:42:56.190Z,83.50
2019-03-09T09:45:25.031Z,85.10
2019-03-09T09:47:53.634Z,85.80
2019-03-09T09:50:22.366Z,86.80
2019-03-09T09:52:50.997Z,88.10
2019-03-09T09:55:20.067Z,87.60
2019-03-09T09:57:50.907Z,87.70
2019-03-09T10:00:28.206Z,86.80
2019-03-09T10:02:56.989Z,87.20
2019-03-09T10:05:26.124Z,87.30
2019-03-09T10:07:54.759Z,86.30
2019-03-09T10:10:24.114Z,86.00
2019-03-09T10:12:52.771Z,86.60
2019-03-09T10:15:32.669Z,87.70
2019-03-09T10:18:01.288Z,87.90
2019-03-09T10:20:29.880Z,87.70
2019-03-09T10:23:04.131Z,87.70
2019-03-09T10:25:28.788Z,87.80
2019-03-09T10:27:57.354Z,87.20
2019-03-09T10:30:26.333Z,87.30
2019-03-09T10:32:55.123Z,87.20
2019-03-09T10:35:23.846Z,86.40
2019-03-09T10:37:52.419Z,86.00
2019-03-09T10:40:21.142Z,85.70
2019-03-09T10:42:49.692Z,85.70
2019-03-09T10:45:19.545Z,85.60
2019-03-09T10:47:48.323Z,85.80
2019-03-09T10:50:17.672Z,85.80
2019-03-09T10:52:46.378Z,85.40
2019-03-09T10:55:20.393Z,85.70
2019-03-09T10:57:48.956Z,85.50
2019-03-09T11:00:28.856Z,85.30
2019-03-09T11:02:57.493Z,84.00
2019-03-09T11:05:26.140Z,84.90
2019-03-09T11:07:55.228Z,84.40
2019-03-09T11:10:23.886Z,84.60
2019-03-09T11:12:52.604Z,84.80
2019-03-09T11:15:21.272Z,83.10
2019-03-09T11:17:50.135Z,82.70
2019-03-09T11:20:20.109Z,82.20
2019-03-09T11:22:48.727Z,82.00
2019-03-09T11:25:17.379Z,82.70
2019-03-09T11:27:46.002Z,82.70
2019-03-09T11:30:17.567Z,81.40
2019-03-09T11:32:46.322Z,81.80
2019-03-09T11:35:14.901Z,80.40
2019-03-09T11:37:43.555Z,79.60
2019-03-09T11:40:12.353Z,80.40
2019-03-09T11:42:40.916Z,81.20
2019-03-09T11:45:12.447Z,79.20
2019-03-09T11:47:41.008Z,79.60
2019-03-09T11:50:11.739Z,79.50
2019-03-09T11:52:40.395Z,78.00
2019-03-09T11:55:10.713Z,78.50
2019-03-09T11:57:39.362Z,77.90
2019-03-09T12:00:11.165Z,77.90
2019-03-09T12:02:39.716Z,78.20
2019-03-09T12:05:09.592Z,79.00
2019-03-09T12:07:38.320Z,78.70
2019-03-09T12:10:10.688Z,78.00
2019-03-09T12:12:39.367Z,78.00
2019-03-09T12:15:13.447Z,78.40
2019-03-09T12:17:42.045Z,77.90
2019-03-09T12:20:12.393Z,78.60
2019-03-09T12:22:40.948Z,78.10
2019-03-09T12:25:11.574Z,78.50
2019-03-09T12:27:40.129Z,79.80
2019-03-09T12:30:11.650Z,80.30
2019-03-09T12:32:40.396Z,79.90
2019-03-09T12:35:09.636Z,79.10
2019-03-09T12:37:38.290Z,79.60
2019-03-09T12:40:15.945Z,80.90
2019-03-09T12:42:44.589Z,81.10
2019-03-09T12:45:13.514Z,82.00
2019-03-09T12:47:42.110Z,82.70
2019-03-09T12:50:16.280Z,82.70
2019-03-09T12:52:44.856Z,83.50
2019-03-09T12:55:14.299Z,84.80
2019-03-09T12:57:43.200Z,85.60
2019-03-09T13:00:19.942Z,87.10
2019-03-09T13:02:48.608Z,88.50
2019-03-09T13:05:18.237Z,89.50
2019-03-09T13:07:47.164Z,90.10
2019-03-09T13:10:16.666Z,90.30
2019-03-09T13:12:45.583Z,90.70
2019-03-09T13:15:15.579Z,90.90
2019-03-09T13:17:44.252Z,91.10
2019-03-09T13:20:15.329Z,91.90
2019-03-09T13:22:43.907Z,91.70
2019-03-09T13:25:12.736Z,91.80
2019-03-09T13:27:41.524Z,91.70
2019-03-09T13:30:15.690Z,91.80
2019-03-09T13:32:44.272Z,91.60
2019-03-09T13:35:13.132Z,91.50
2019-03-09T13:37:43.290Z,91.50
2019-03-09T13:40:13.334Z,90.80
2019-03-09T13:42:42.242Z,90.80
2019-03-09T13:45:15.615Z,90.70
2019-03-09T13:47:44.339Z,90.50
2019-03-09T13:50:14.973Z,90.40
2019-03-09T13:52:43.735Z,90.30
2019-03-09T13:55:13.243Z,90.20
2019-03-09T13:57:42.357Z,90.20
2019-03-09T14:00:13.725Z,90.00
2019-03-09T14:02:42.667Z,90.20
2019-03-09T14:05:11.681Z,90.00
2019-03-09T14:07:40.320Z,90.20
2019-03-09T14:10:11.840Z,90.30
2019-03-09T14:12:40.731Z,90.20
2019-03-09T14:15:12.155Z,90.20
2019-03-09T14:17:40.961Z,90.30
2019-03-09T14:20:11.722Z,90.30
2019-03-09T14:22:40.433Z,90.40
2019-03-09T14:25:11.155Z,90.30
2019-03-09T14:27:39.963Z,90.50
2019-03-09T14:30:13.757Z,90.80
2019-03-09T14:32:42.704Z,90.20
2019-03-09T14:35:11.640Z,90.20
2019-03-09T14:37:40.242Z,90.80
2019-03-09T14:40:11.896Z,91.00
2019-03-09T14:42:40.597Z,90.80
2019-03-09T14:45:14.497Z,91.30
2019-03-09T14:47:43.160Z,91.70
2019-03-09T14:50:12.186Z,92.70
2019-03-09T14:52:40.780Z,93.70
2019-03-09T14:55:11.202Z,94.30
2019-03-09T14:57:39.929Z,94.60
2019-03-09T15:00:19.566Z,94.80
2019-03-09T15:02:48.132Z,95.30
2019-03-09T15:05:16.768Z,95.70
2019-03-09T15:07:45.453Z,96.00
2019-03-09T15:10:14.664Z,96.30
2019-03-09T15:12:43.273Z,96.50
2019-03-09T15:15:19.552Z,97.00
2019-03-09T15:17:48.468Z,96.50
2019-03-09T15:20:17.595Z,96.00
2019-03-09T15:22:46.572Z,96.20
2019-03-09T15:25:19.466Z,95.20
2019-03-09T15:27:48.333Z,94.60
2019-03-09T15:30:18.211Z,94.70
2019-03-09T15:32:47.047Z,93.90
2019-03-09T15:35:16.807Z,94.00
2019-03-09T15:37:45.927Z,93.90
2019-03-09T15:40:18.408Z,93.70
2019-03-09T15:42:47.864Z,93.90
2019-03-09T15:45:20.550Z,93.60
2019-03-09T15:47:49.481Z,94.00
2019-03-09T15:50:19.396Z,94.30
2019-03-09T15:52:49.922Z,94.30
2019-03-09T15:55:19.959Z,94.60
2019-03-09T15:57:50.501Z,94.70
2019-03-09T16:00:23.440Z,95.30
2019-03-09T16:02:52.532Z,95.40
2019-03-09T16:05:21.267Z,95.70
2019-03-09T16:07:50.014Z,95.80
2019-03-09T16:10:22.969Z,96.00
2019-03-09T16:12:51.661Z,96.10
2019-03-09T16:15:20.340Z,96.30
2019-03-09T16:17:49.206Z,96.50
2019-03-09T16:20:26.254Z,96.60
2019-03-09T16:22:54.827Z,96.50
2019-03-09T16:25:23.417Z,96.40
2019-03-09T16:27:52.028Z,96.40
2019-03-09T16:30:24.261Z,96.40
2019-03-09T16:32:52.948Z,96.20
2019-03-09T16:35:21.689Z,96.10
2019-03-09T16:37:51.500Z,96.10
2019-03-09T16:40:22.490Z,96.10
2019-03-09T16:42:51.154Z,96.10
2019-03-09T16:45:19.777Z,95.80
2019-03-09T16:47:48.402Z,95.90
2019-03-09T16:50:20.223Z,95.90
2019-03-09T16:52:48.776Z,95.80
2019-03-09T16:55:17.428Z,96.00
2019-03-09T16:57:46.208Z,95.80
2019-03-09T17:00:22.873Z,95.90
2019-03-09T17:02:51.422Z,95.90
2019-03-09T17:05:20.068Z,95.80
2019-03-09T17:07:48.631Z,95.80
2019-03-09T17:10:19.170Z,95.80
2019-03-09T17:12:48.158Z,95.60
2019-03-09T17:15:21.436Z,95.70
2019-03-09T17:17:50.057Z,95.50
2019-03-09T17:20:19.847Z,95.40
2019-03-09T17:22:48.582Z,95.60
2019-03-09T17:25:17.335Z,95.60
2019-03-09T17:27:46.019Z,95.90
2019-03-09T17:30:19.487Z,95.90
2019-03-09T17:32:48.304Z,96.10
2019-03-09T17:35:16.945Z,96.10
2019-03-09T17:37:45.563Z,96.40
2019-03-09T17:40:16.549Z,96.40
2019-03-09T17:42:45.238Z,96.60
2019-03-09T17:45:19.488Z,96.70
2019-03-09T17:47:48.037Z,96.70
2019-03-09T17:50:16.680Z,96.80
2019-03-09T17:52:45.376Z,96.70
2019-03-09T17:55:14.217Z,96.60
2019-03-09T17:57:42.840Z,96.60
2019-03-09T18:00:17.300Z,96.60
2019-03-09T18:02:46.041Z,97.10
2019-03-09T18:05:14.616Z,96.80
2019-03-09T18:07:43.237Z,96.50
2019-03-09T18:10:20.380Z,96.50
2019-03-09T18:12:48.932Z,96.40
2019-03-09T18:15:17.535Z,96.30
2019-03-09T18:17:46.092Z,96.10
2019-03-09T18:20:14.883Z,96.10
2019-03-09T18:22:43.636Z,95.90
2019-03-09T18:25:12.744Z,96.30
2019-03-09T18:27:41.372Z,95.80
2019-03-09T18:30:12.276Z,95.60
2019-03-09T18:32:40.900Z,95.70
2019-03-09T18:35:11.283Z,95.50
2019-03-09T18:37:39.837Z,95.40
2019-03-09T18:40:11.537Z,95.40
2019-03-09T18:42:40.091Z,95.40
2019-03-09T18:45:19.473Z,95.30
2019-03-09T18:47:48.026Z,95.10
2019-03-09T18:50:17.017Z,94.80
2019-03-09T18:52:45.588Z,94.70
2019-03-09T18:55:14.306Z,94.70
2019-03-09T18:57:42.929Z,94.60
2019-03-09T19:00:14.738Z,94.60
2019-03-09T19:02:43.723Z,94.60
2019-03-09T19:05:12.268Z,94.50
2019-03-09T19:07:40.909Z,94.60
2019-03-09T19:10:23.668Z,94.40
2019-03-09T19:12:52.267Z,94.50
2019-03-09T19:15:20.823Z,94.50
2019-03-09T19:17:49.391Z,94.60
2019-03-09T19:20:21.426Z,94.50
2019-03-09T19:22:50.142Z,94.10
2019-03-09T19:25:18.764Z,94.20
2019-03-09T19:27:47.416Z,94.00
2019-03-09T19:30:20.389Z,94.20
2019-03-09T19:32:59.657Z,94.10
2019-03-09T19:35:19.600Z,94.00
2019-03-09T19:37:48.244Z,94.10
2019-03-09T19:40:19.411Z,93.90
2019-03-09T19:42:48.054Z,93.80
2019-03-09T19:45:21.291Z,93.80
2019-03-09T19:47:49.947Z,93.80
2019-03-09T19:50:23.559Z,93.70
2019-03-09T19:52:52.414Z,93.70
2019-03-09T19:55:20.964Z,93.60
2019-03-09T19:57:49.538Z,93.70
2019-03-09T20:00:21.941Z,93.40
2019-03-09T20:02:50.527Z,93.40
2019-03-09T20:05:19.216Z,93.40
2019-03-09T20:07:47.784Z,93.40
2019-03-09T20:10:21.179Z,93.40
2019-03-09T20:12:49.831Z,93.40
2019-03-09T20:15:19.533Z,93.40
2019-03-09T20:17:48.378Z,93.40
2019-03-09T20:20:20.299Z,93.30
2019-03-09T20:22:48.993Z,93.50
2019-03-09T20:25:17.617Z,93.30
2019-03-09T20:27:46.419Z,93.50
2019-03-09T20:30:17.352Z,93.30
2019-03-09T20:32:45.988Z,93.30
2019-03-09T20:35:14.621Z,93.30
2019-03-09T20:37:43.200Z,93.20
2019-03-09T20:40:16.883Z,93.10
2019-03-09T20:42:45.524Z,93.20
2019-03-09T20:45:21.896Z,93.10
2019-03-09T20:47:50.924Z,92.90
2019-03-09T20:50:20.801Z,92.90
2019-03-09T20:52:49.576Z,92.80
2019-03-09T20:55:18.197Z,92.80
2019-03-09T20:57:47.561Z,92.80
2019-03-09T21:00:17.616Z,92.90
2019-03-09T21:02:46.216Z,92.90
2019-03-09T21:05:14.914Z,92.70
2019-03-09T21:07:43.546Z,92.70
2019-03-09T21:10:20.122Z,92.70
2019-03-09T21:13:00.388Z,92.60
2019-03-09T21:15:29.220Z,92.60
2019-03-09T21:17:58.171Z,92.60
2019-03-09T21:20:26.801Z,92.50
2019-03-09T21:22:55.445Z,92.50
2019-03-09T21:25:29.074Z,92.30
2019-03-09T21:27:57.657Z,92.30
2019-03-09T21:30:26.306Z,92.30
2019-03-09T21:32:54.856Z,92.20
2019-03-09T21:35:23.524Z,92.20
2019-03-09T21:37:52.099Z,92.00
2019-03-09T21:40:20.645Z,92.00
2019-03-09T21:42:49.236Z,92.00
2019-03-09T21:45:17.853Z,92.00
2019-03-09T21:47:46.444Z,91.80
2019-03-09T21:50:18.489Z,91.90
2019-03-09T21:52:47.135Z,91.80
2019-03-09T21:55:16.742Z,91.80
2019-03-09T21:57:45.391Z,91.70
2019-03-09T22:00:19.634Z,91.90
2019-03-09T22:02:50.186Z,91.50
2019-03-09T22:05:18.481Z,91.40
2019-03-09T22:07:47.119Z,91.50
2019-03-09T22:10:15.752Z,91.50
2019-03-09T22:12:44.304Z,91.40
2019-03-09T22:15:15.000Z,91.20
2019-03-09T22:17:43.788Z,91.10
2019-03-09T22:20:13.409Z,91.00
2019-03-09T22:22:42.296Z,91.00
2019-03-09T22:25:12.009Z,90.80
2019-03-09T22:27:40.556Z,90.80
2019-03-09T22:30:17.487Z,90.70
2019-03-09T22:32:46.218Z,90.70
2019-03-09T22:35:15.235Z,90.60
2019-03-09T22:37:43.821Z,90.70
2019-03-09T22:40:17.272Z,90.70
2019-03-09T22:42:45.824Z,90.70
2019-03-09T22:45:15.432Z,90.70
2019-03-09T22:47:44.055Z,90.60
2019-03-09T22:50:15.072Z,90.50
2019-03-09T22:52:43.620Z,90.60
2019-03-09T22:55:12.876Z,91.00
2019-03-09T22:57:41.503Z,90.60
2019-03-09T23:00:12.986Z,90.60
2019-03-09T23:02:41.535Z,91.00
2019-03-09T23:05:11.351Z,90.70
2019-03-09T23:07:39.895Z,90.70
2019-03-09T23:10:11.608Z,90.60
2019-03-09T23:12:40.175Z,90.70
2019-03-09T23:15:12.108Z,90.70
2019-03-09T23:17:40.913Z,90.90
2019-03-09T23:20:12.177Z,90.90
2019-03-09T23:22:40.718Z,91.00
2019-03-09T23:25:10.270Z,90.80
2019-03-09T23:27:39.165Z,90.80
2019-03-09T23:30:16.128Z,90.90
2019-03-09T23:32:44.693Z,91.20
2019-03-09T23:35:13.605Z,91.10
2019-03-09T23:37:42.300Z,91.20
2019-03-09T23:40:22.464Z,90.90
2019-03-09T23:42:51.140Z,90.70
2019-03-09T23:45:24.748Z,90.70
2019-03-09T23:47:53.492Z,90.80
2019-03-09T23:50:22.709Z,90.80
2019-03-09T23:52:51.389Z,90.80
2019-03-09T23:55:23.027Z,90.90
2019-03-09T23:57:51.028Z,90.90
